sensor_id;sensor_type;location;lat;lon;timestamp;temperature;humidity
54788;DHT22;59598;48.112;16.280;2022-12-22T00:00:09;0.50;99.90
54788;DHT22;59598;48.112;16.280;2022-12-22T00:02:58;0.50;99.90
54788;DHT22;59598;48.112;16.280;2022-12-22T00:05:50;0.40;99.90
54788;DHT22;59598;48.112;16.280;2022-12-22T00:08:40;0.30;99.90
54788;DHT22;59598;48.112;16.280;2022-12-22T00:11:33;0.30;99.90
54788;DHT22;59598;48.112;16.280;2022-12-22T00:14:25;0.30;99.90
54788;DHT22;59598;48.112;16.280;2022-12-22T00:17:24;0.30;99.90
54788;DHT22;59598;48.112;16.280;2022-12-22T00:20:19;0.20;99.90
54788;DHT22;59598;48.112;16.280;2022-12-22T00:23:11;0.20;99.90
54788;DHT22;59598;48.112;16.280;2022-12-22T00:26:01;0.30;99.90
54788;DHT22;59598;48.112;16.280;2022-12-22T00:28:51;0.40;99.90
54788;DHT22;59598;48.112;16.280;2022-12-22T00:31:43;0.40;99.90
54788;DHT22;59598;48.112;16.280;2022-12-22T00:34:40;0.40;99.90
54788;DHT22;59598;48.112;16.280;2022-12-22T00:37:35;0.50;99.90
54788;DHT22;59598;48.112;16.280;2022-12-22T00:40:27;0.50;99.90
54788;DHT22;59598;48.112;16.280;2022-12-22T00:43:20;0.60;99.90
54788;DHT22;59598;48.112;16.280;2022-12-22T00:46:14;0.60;99.90
54788;DHT22;59598;48.112;16.280;2022-12-22T00:49:07;0.60;99.90
54788;DHT22;59598;48.112;16.280;2022-12-22T00:51:57;0.60;99.90
54788;DHT22;59598;48.112;16.280;2022-12-22T00:54:49;0.60;99.90
54788;DHT22;59598;48.112;16.280;2022-12-22T00:57:47;0.60;99.90
54788;DHT22;59598;48.112;16.280;2022-12-22T01:00:39;0.40;99.90
54788;DHT22;59598;48.112;16.280;2022-12-22T01:03:28;0.40;99.90
54788;DHT22;59598;48.112;16.280;2022-12-22T01:06:29;0.50;99.90
54788;DHT22;59598;48.112;16.280;2022-12-22T01:09:20;0.50;99.90
54788;DHT22;59598;48.112;16.280;2022-12-22T01:12:18;0.50;99.90
54788;DHT22;59598;48.112;16.280;2022-12-22T01:15:15;0.60;99.90
54788;DHT22;59598;48.112;16.280;2022-12-22T01:18:07;0.60;99.90
54788;DHT22;59598;48.112;16.280;2022-12-22T01:21:00;0.60;99.90
54788;DHT22;59598;48.112;16.280;2022-12-22T01:23:50;0.50;99.90
54788;DHT22;59598;48.112;16.280;2022-12-22T01:26:44;0.50;99.90
54788;DHT22;59598;48.112;16.280;2022-12-22T01:29:36;0.40;99.90
54788;DHT22;59598;48.112;16.280;2022-12-22T01:32:29;0.30;99.90
54788;DHT22;59598;48.112;16.280;2022-12-22T01:35:32;0.30;99.90
54788;DHT22;59598;48.112;16.280;2022-12-22T01:38:24;0.40;99.90
54788;DHT22;59598;48.112;16.280;2022-12-22T01:41:17;0.30;99.90
54788;DHT22;59598;48.112;16.280;2022-12-22T01:44:15;0.30;99.90
54788;DHT22;59598;48.112;16.280;2022-12-22T01:50:21;0.40;99.90
54788;DHT22;59598;48.112;16.280;2022-12-22T01:53:24;0.50;99.90
54788;DHT22;59598;48.112;16.280;2022-12-22T01:56:16;0.50;99.90
54788;DHT22;59598;48.112;16.280;2022-12-22T01:59:06;0.50;99.90
54788;DHT22;59598;48.112;16.280;2022-12-22T02:01:57;0.50;99.90
54788;DHT22;59598;48.112;16.280;2022-12-22T02:04:47;0.60;99.90
54788;DHT22;59598;48.112;16.280;2022-12-22T02:14:48;0.70;99.90
54788;DHT22;59598;48.112;16.280;2022-12-22T02:18:11;0.70;99.90
54788;DHT22;59598;48.112;16.280;2022-12-22T02:21:04;0.80;99.90
54788;DHT22;59598;48.112;16.280;2022-12-22T02:24:07;0.70;99.90
54788;DHT22;59598;48.112;16.280;2022-12-22T02:27:03;0.80;99.90
54788;DHT22;59598;48.112;16.280;2022-12-22T02:30:00;0.90;99.90
54788;DHT22;59598;48.112;16.280;2022-12-22T02:32:50;1.00;99.90
54788;DHT22;59598;48.112;16.280;2022-12-22T02:35:44;0.90;99.90
54788;DHT22;59598;48.112;16.280;2022-12-22T02:45:17;0.70;99.90
54788;DHT22;59598;48.112;16.280;2022-12-22T02:48:56;0.80;99.90
54788;DHT22;59598;48.112;16.280;2022-12-22T02:51:27;0.90;99.90
54788;DHT22;59598;48.112;16.280;2022-12-22T02:54:19;0.80;99.90
54788;DHT22;59598;48.112;16.280;2022-12-22T02:57:12;0.90;99.90
54788;DHT22;59598;48.112;16.280;2022-12-22T03:00:05;0.90;99.90
54788;DHT22;59598;48.112;16.280;2022-12-22T03:02:55;1.00;99.90
54788;DHT22;59598;48.112;16.280;2022-12-22T03:05:47;1.00;99.90
54788;DHT22;59598;48.112;16.280;2022-12-22T03:08:42;1.00;99.90
54788;DHT22;59598;48.112;16.280;2022-12-22T03:11:38;1.00;99.90
54788;DHT22;59598;48.112;16.280;2022-12-22T03:14:28;1.00;99.90
54788;DHT22;59598;48.112;16.280;2022-12-22T03:17:22;1.00;99.90
54788;DHT22;59598;48.112;16.280;2022-12-22T03:20:12;1.00;99.90
54788;DHT22;59598;48.112;16.280;2022-12-22T03:23:06;0.90;99.90
54788;DHT22;59598;48.112;16.280;2022-12-22T03:25:56;0.80;99.90
54788;DHT22;59598;48.112;16.280;2022-12-22T03:28:30;0.60;99.90
54788;DHT22;59598;48.112;16.280;2022-12-22T03:31:04;0.50;99.90
54788;DHT22;59598;48.112;16.280;2022-12-22T03:33:38;0.30;99.90
54788;DHT22;59598;48.112;16.280;2022-12-22T03:36:10;0.30;99.90
54788;DHT22;59598;48.112;16.280;2022-12-22T03:38:42;0.20;99.90
54788;DHT22;59598;48.112;16.280;2022-12-22T03:41:13;0.20;99.90
54788;DHT22;59598;48.112;16.280;2022-12-22T03:44:04;0.20;99.90
54788;DHT22;59598;48.112;16.280;2022-12-22T03:46:54;0.20;99.90
54788;DHT22;59598;48.112;16.280;2022-12-22T03:49:25;0.10;99.90
54788;DHT22;59598;48.112;16.280;2022-12-22T03:51:59;0.10;99.90
54788;DHT22;59598;48.112;16.280;2022-12-22T03:54:30;0.10;99.90
54788;DHT22;59598;48.112;16.280;2022-12-22T03:57:02;0.10;99.90
54788;DHT22;59598;48.112;16.280;2022-12-22T03:59:33;0.10;99.90
54788;DHT22;59598;48.112;16.280;2022-12-22T04:02:09;0.10;99.90
54788;DHT22;59598;48.112;16.280;2022-12-22T04:04:41;0.20;99.90
54788;DHT22;59598;48.112;16.280;2022-12-22T04:07:12;0.20;99.90
54788;DHT22;59598;48.112;16.280;2022-12-22T04:09:45;0.20;99.90
54788;DHT22;59598;48.112;16.280;2022-12-22T04:12:35;0.20;99.90
54788;DHT22;59598;48.112;16.280;2022-12-22T04:15:27;0.20;99.90
54788;DHT22;59598;48.112;16.280;2022-12-22T04:18:02;0.30;99.90
54788;DHT22;59598;48.112;16.280;2022-12-22T04:20:34;0.40;99.90
54788;DHT22;59598;48.112;16.280;2022-12-22T04:23:10;0.40;99.90
54788;DHT22;59598;48.112;16.280;2022-12-22T04:25:41;0.40;99.90
54788;DHT22;59598;48.112;16.280;2022-12-22T04:28:13;0.50;99.90
54788;DHT22;59598;48.112;16.280;2022-12-22T04:30:49;0.50;99.90
54788;DHT22;59598;48.112;16.280;2022-12-22T04:33:22;0.50;99.90
54788;DHT22;59598;48.112;16.280;2022-12-22T04:35:56;0.60;99.90
54788;DHT22;59598;48.112;16.280;2022-12-22T04:38:27;0.60;99.90
54788;DHT22;59598;48.112;16.280;2022-12-22T04:41:05;0.60;99.90
54788;DHT22;59598;48.112;16.280;2022-12-22T04:43:41;0.60;99.90
54788;DHT22;59598;48.112;16.280;2022-12-22T04:46:13;0.60;99.90
54788;DHT22;59598;48.112;16.280;2022-12-22T04:48:49;0.60;99.90
54788;DHT22;59598;48.112;16.280;2022-12-22T04:51:25;0.60;99.90
54788;DHT22;59598;48.112;16.280;2022-12-22T04:53:58;0.60;99.90
54788;DHT22;59598;48.112;16.280;2022-12-22T04:56:32;0.70;99.90
54788;DHT22;59598;48.112;16.280;2022-12-22T04:59:05;0.70;99.90
54788;DHT22;59598;48.112;16.280;2022-12-22T05:01:42;0.80;99.90
54788;DHT22;59598;48.112;16.280;2022-12-22T05:04:24;0.80;99.90
54788;DHT22;59598;48.112;16.280;2022-12-22T05:07:04;0.80;99.90
54788;DHT22;59598;48.112;16.280;2022-12-22T05:09:41;0.80;99.90
54788;DHT22;59598;48.112;16.280;2022-12-22T05:12:15;0.80;99.90
54788;DHT22;59598;48.112;16.280;2022-12-22T05:15:05;0.60;99.90
54788;DHT22;59598;48.112;16.280;2022-12-22T05:17:44;0.60;99.90
54788;DHT22;59598;48.112;16.280;2022-12-22T05:20:18;0.70;99.90
54788;DHT22;59598;48.112;16.280;2022-12-22T05:22:52;0.70;99.90
54788;DHT22;59598;48.112;16.280;2022-12-22T05:25:24;0.60;99.90
54788;DHT22;59598;48.112;16.280;2022-12-22T05:27:56;0.60;99.90
54788;DHT22;59598;48.112;16.280;2022-12-22T05:30:27;0.60;99.90
54788;DHT22;59598;48.112;16.280;2022-12-22T05:33:01;0.60;99.90
54788;DHT22;59598;48.112;16.280;2022-12-22T05:35:33;0.60;99.90
54788;DHT22;59598;48.112;16.280;2022-12-22T05:38:07;0.70;99.90
54788;DHT22;59598;48.112;16.280;2022-12-22T05:40:44;0.60;99.90
54788;DHT22;59598;48.112;16.280;2022-12-22T05:43:18;0.50;99.90
54788;DHT22;59598;48.112;16.280;2022-12-22T05:45:55;0.50;99.90
54788;DHT22;59598;48.112;16.280;2022-12-22T05:48:28;0.50;99.90
54788;DHT22;59598;48.112;16.280;2022-12-22T05:51:02;0.40;99.90
54788;DHT22;59598;48.112;16.280;2022-12-22T05:53:33;0.40;99.90
54788;DHT22;59598;48.112;16.280;2022-12-22T05:56:08;0.40;99.90
54788;DHT22;59598;48.112;16.280;2022-12-22T05:58:42;0.40;99.90
54788;DHT22;59598;48.112;16.280;2022-12-22T06:01:37;0.50;99.90
54788;DHT22;59598;48.112;16.280;2022-12-22T06:07:39;0.60;99.90
54788;DHT22;59598;48.112;16.280;2022-12-22T06:10:11;0.60;99.90
54788;DHT22;59598;48.112;16.280;2022-12-22T06:12:44;0.60;99.90
54788;DHT22;59598;48.112;16.280;2022-12-22T06:15:24;0.60;99.90
54788;DHT22;59598;48.112;16.280;2022-12-22T06:17:55;0.40;99.90
54788;DHT22;59598;48.112;16.280;2022-12-22T06:20:26;0.30;99.90
54788;DHT22;59598;48.112;16.280;2022-12-22T06:23:00;0.30;99.90
54788;DHT22;59598;48.112;16.280;2022-12-22T06:25:34;0.30;99.90
54788;DHT22;59598;48.112;16.280;2022-12-22T06:28:05;0.40;99.90
54788;DHT22;59598;48.112;16.280;2022-12-22T06:30:36;0.40;99.90
54788;DHT22;59598;48.112;16.280;2022-12-22T06:33:10;0.40;99.90
54788;DHT22;59598;48.112;16.280;2022-12-22T06:35:44;0.50;99.90
54788;DHT22;59598;48.112;16.280;2022-12-22T06:38:17;0.40;99.90
54788;DHT22;59598;48.112;16.280;2022-12-22T06:40:51;0.30;99.90
54788;DHT22;59598;48.112;16.280;2022-12-22T06:43:24;0.30;99.90
54788;DHT22;59598;48.112;16.280;2022-12-22T06:45:58;0.30;99.90
54788;DHT22;59598;48.112;16.280;2022-12-22T06:48:29;0.20;99.90
54788;DHT22;59598;48.112;16.280;2022-12-22T06:51:03;0.20;99.90
54788;DHT22;59598;48.112;16.280;2022-12-22T06:53:34;0.20;99.90
54788;DHT22;59598;48.112;16.280;2022-12-22T06:56:06;0.20;99.90
54788;DHT22;59598;48.112;16.280;2022-12-22T06:58:38;0.30;99.90
54788;DHT22;59598;48.112;16.280;2022-12-22T07:01:09;0.40;99.90
54788;DHT22;59598;48.112;16.280;2022-12-22T07:03:40;0.40;99.90
54788;DHT22;59598;48.112;16.280;2022-12-22T07:06:17;0.40;99.90
54788;DHT22;59598;48.112;16.280;2022-12-22T07:09:22;0.40;99.90
54788;DHT22;59598;48.112;16.280;2022-12-22T07:12:00;0.20;99.90
54788;DHT22;59598;48.112;16.280;2022-12-22T07:14:31;0.30;99.90
54788;DHT22;59598;48.112;16.280;2022-12-22T07:17:08;0.30;99.90
54788;DHT22;59598;48.112;16.280;2022-12-22T07:19:39;0.30;99.90
54788;DHT22;59598;48.112;16.280;2022-12-22T07:22:13;0.20;99.90
54788;DHT22;59598;48.112;16.280;2022-12-22T07:24:44;0.20;99.90
54788;DHT22;59598;48.112;16.280;2022-12-22T07:27:18;0.20;99.90
54788;DHT22;59598;48.112;16.280;2022-12-22T07:29:51;0.20;99.90
54788;DHT22;59598;48.112;16.280;2022-12-22T07:32:23;0.10;99.90
54788;DHT22;59598;48.112;16.280;2022-12-22T07:34:54;0.10;99.90
54788;DHT22;59598;48.112;16.280;2022-12-22T07:37:28;0.20;99.90
54788;DHT22;59598;48.112;16.280;2022-12-22T07:40:01;0.20;99.90
54788;DHT22;59598;48.112;16.280;2022-12-22T07:42:32;0.20;99.90
54788;DHT22;59598;48.112;16.280;2022-12-22T07:45:18;0.20;99.90
54788;DHT22;59598;48.112;16.280;2022-12-22T07:47:58;0.20;99.90
54788;DHT22;59598;48.112;16.280;2022-12-22T07:50:29;0.10;99.90
54788;DHT22;59598;48.112;16.280;2022-12-22T07:53:04;0.10;99.90
54788;DHT22;59598;48.112;16.280;2022-12-22T07:55:35;0.10;99.90
54788;DHT22;59598;48.112;16.280;2022-12-22T07:58:11;0.20;99.90
54788;DHT22;59598;48.112;16.280;2022-12-22T08:00:43;0.30;99.90
54788;DHT22;59598;48.112;16.280;2022-12-22T08:03:17;0.40;99.90
54788;DHT22;59598;48.112;16.280;2022-12-22T08:05:51;0.30;99.90
54788;DHT22;59598;48.112;16.280;2022-12-22T08:08:23;0.40;99.90
54788;DHT22;59598;48.112;16.280;2022-12-22T08:10:54;0.30;99.90
54788;DHT22;59598;48.112;16.280;2022-12-22T08:13:25;0.50;99.90
54788;DHT22;59598;48.112;16.280;2022-12-22T08:16:04;0.60;99.90
54788;DHT22;59598;48.112;16.280;2022-12-22T08:18:36;0.60;99.90
54788;DHT22;59598;48.112;16.280;2022-12-22T08:21:10;0.60;99.90
54788;DHT22;59598;48.112;16.280;2022-12-22T08:23:41;0.70;99.90
54788;DHT22;59598;48.112;16.280;2022-12-22T08:26:19;0.80;99.90
54788;DHT22;59598;48.112;16.280;2022-12-22T08:29:20;1.00;99.90
54788;DHT22;59598;48.112;16.280;2022-12-22T08:31:53;1.00;99.90
54788;DHT22;59598;48.112;16.280;2022-12-22T08:34:25;1.30;99.90
54788;DHT22;59598;48.112;16.280;2022-12-22T08:36:59;1.40;99.90
54788;DHT22;59598;48.112;16.280;2022-12-22T08:39:35;1.40;99.90
54788;DHT22;59598;48.112;16.280;2022-12-22T08:42:11;1.50;99.90
54788;DHT22;59598;48.112;16.280;2022-12-22T08:44:43;1.60;99.90
54788;DHT22;59598;48.112;16.280;2022-12-22T08:47:25;1.50;99.90
54788;DHT22;59598;48.112;16.280;2022-12-22T08:49:56;1.40;99.90
54788;DHT22;59598;48.112;16.280;2022-12-22T08:52:30;1.50;99.90
54788;DHT22;59598;48.112;16.280;2022-12-22T08:55:01;1.50;99.90
54788;DHT22;59598;48.112;16.280;2022-12-22T08:57:33;1.50;99.90
54788;DHT22;59598;48.112;16.280;2022-12-22T09:00:05;1.60;99.90
54788;DHT22;59598;48.112;16.280;2022-12-22T09:02:38;1.50;99.90
54788;DHT22;59598;48.112;16.280;2022-12-22T09:05:09;1.40;99.90
54788;DHT22;59598;48.112;16.280;2022-12-22T09:07:40;1.40;99.90
54788;DHT22;59598;48.112;16.280;2022-12-22T09:10:17;1.50;99.90
54788;DHT22;59598;48.112;16.280;2022-12-22T09:12:51;1.60;99.90
54788;DHT22;59598;48.112;16.280;2022-12-22T09:15:29;1.70;99.90
54788;DHT22;59598;48.112;16.280;2022-12-22T09:18:07;1.80;99.90
54788;DHT22;59598;48.112;16.280;2022-12-22T09:20:38;1.80;99.90
54788;DHT22;59598;48.112;16.280;2022-12-22T09:23:12;1.90;99.90
54788;DHT22;59598;48.112;16.280;2022-12-22T09:25:43;1.80;99.90
54788;DHT22;59598;48.112;16.280;2022-12-22T09:28:19;1.90;99.90
54788;DHT22;59598;48.112;16.280;2022-12-22T09:30:51;1.90;99.90
54788;DHT22;59598;48.112;16.280;2022-12-22T09:33:23;2.00;99.90
54788;DHT22;59598;48.112;16.280;2022-12-22T09:35:56;2.10;99.90
54788;DHT22;59598;48.112;16.280;2022-12-22T09:38:27;2.20;99.90
54788;DHT22;59598;48.112;16.280;2022-12-22T09:41:05;2.30;99.90
54788;DHT22;59598;48.112;16.280;2022-12-22T09:43:36;2.10;99.90
54788;DHT22;59598;48.112;16.280;2022-12-22T09:46:37;1.90;99.90
54788;DHT22;59598;48.112;16.280;2022-12-22T09:49:13;1.80;99.90
54788;DHT22;59598;48.112;16.280;2022-12-22T09:51:56;1.80;99.90
54788;DHT22;59598;48.112;16.280;2022-12-22T09:54:31;1.80;99.90
54788;DHT22;59598;48.112;16.280;2022-12-22T09:57:04;1.80;99.90
54788;DHT22;59598;48.112;16.280;2022-12-22T09:59:36;1.90;99.90
54788;DHT22;59598;48.112;16.280;2022-12-22T10:07:41;1.50;99.90
54788;DHT22;59598;48.112;16.280;2022-12-22T10:10:23;1.60;99.90
54788;DHT22;59598;48.112;16.280;2022-12-22T10:13:03;1.60;99.90
54788;DHT22;59598;48.112;16.280;2022-12-22T10:15:37;1.60;99.90
54788;DHT22;59598;48.112;16.280;2022-12-22T10:18:23;1.30;99.90
54788;DHT22;59598;48.112;16.280;2022-12-22T10:21:14;1.30;99.90
54788;DHT22;59598;48.112;16.280;2022-12-22T10:23:47;1.40;99.90
54788;DHT22;59598;48.112;16.280;2022-12-22T10:26:31;1.50;99.90
54788;DHT22;59598;48.112;16.280;2022-12-22T10:29:16;1.60;99.90
54788;DHT22;59598;48.112;16.280;2022-12-22T10:32:03;1.50;99.90
54788;DHT22;59598;48.112;16.280;2022-12-22T10:34:34;1.40;99.90
54788;DHT22;59598;48.112;16.280;2022-12-22T10:37:07;1.40;99.90
54788;DHT22;59598;48.112;16.280;2022-12-22T10:39:47;1.40;99.90
54788;DHT22;59598;48.112;16.280;2022-12-22T10:42:21;1.30;99.90
54788;DHT22;59598;48.112;16.280;2022-12-22T10:44:53;1.30;99.90
54788;DHT22;59598;48.112;16.280;2022-12-22T10:47:33;1.30;99.90
54788;DHT22;59598;48.112;16.280;2022-12-22T10:50:08;1.40;99.90
54788;DHT22;59598;48.112;16.280;2022-12-22T10:52:52;1.50;99.90
54788;DHT22;59598;48.112;16.280;2022-12-22T10:55:32;1.70;99.90
54788;DHT22;59598;48.112;16.280;2022-12-22T10:58:14;1.90;99.90
54788;DHT22;59598;48.112;16.280;2022-12-22T11:01:03;2.00;99.90
54788;DHT22;59598;48.112;16.280;2022-12-22T11:03:37;2.10;99.90
54788;DHT22;59598;48.112;16.280;2022-12-22T11:06:11;2.10;99.90
54788;DHT22;59598;48.112;16.280;2022-12-22T11:08:43;2.10;99.90
54788;DHT22;59598;48.112;16.280;2022-12-22T11:11:29;1.90;99.90
54788;DHT22;59598;48.112;16.280;2022-12-22T11:14:39;1.90;99.90
54788;DHT22;59598;48.112;16.280;2022-12-22T11:25:30;1.80;99.90
54788;DHT22;59598;48.112;16.280;2022-12-22T11:28:15;1.70;99.90
54788;DHT22;59598;48.112;16.280;2022-12-22T11:45:00;1.80;99.90
54788;DHT22;59598;48.112;16.280;2022-12-22T11:56:20;1.80;99.90
54788;DHT22;59598;48.112;16.280;2022-12-22T12:02:18;2.00;99.90
54788;DHT22;59598;48.112;16.280;2022-12-22T12:10:25;2.00;99.90
54788;DHT22;59598;48.112;16.280;2022-12-22T12:15:52;2.20;99.90
54788;DHT22;59598;48.112;16.280;2022-12-22T12:21:26;2.10;99.90
54788;DHT22;59598;48.112;16.280;2022-12-22T12:27:48;1.80;99.90
54788;DHT22;59598;48.112;16.280;2022-12-22T12:32:39;1.60;99.90
54788;DHT22;59598;48.112;16.280;2022-12-22T12:35:42;1.60;99.90
54788;DHT22;59598;48.112;16.280;2022-12-22T12:38:40;1.60;99.90
54788;DHT22;59598;48.112;16.280;2022-12-22T12:44:34;1.60;99.90
54788;DHT22;59598;48.112;16.280;2022-12-22T12:47:24;1.70;99.90
54788;DHT22;59598;48.112;16.280;2022-12-22T12:50:01;1.70;99.90
54788;DHT22;59598;48.112;16.280;2022-12-22T12:55:31;1.60;99.90
54788;DHT22;59598;48.112;16.280;2022-12-22T12:58:03;1.60;99.90
54788;DHT22;59598;48.112;16.280;2022-12-22T13:03:11;1.90;99.90
54788;DHT22;59598;48.112;16.280;2022-12-22T13:06:04;2.40;99.90
54788;DHT22;59598;48.112;16.280;2022-12-22T13:09:20;3.70;99.90
54788;DHT22;59598;48.112;16.280;2022-12-22T13:11:54;5.00;99.90
54788;DHT22;59598;48.112;16.280;2022-12-22T13:14:57;5.80;99.90
54788;DHT22;59598;48.112;16.280;2022-12-22T13:17:47;6.90;99.90
54788;DHT22;59598;48.112;16.280;2022-12-22T13:20:35;7.70;99.90
54788;DHT22;59598;48.112;16.280;2022-12-22T13:23:13;7.20;99.90
54788;DHT22;59598;48.112;16.280;2022-12-22T13:25:55;6.80;99.90
54788;DHT22;59598;48.112;16.280;2022-12-22T13:28:30;6.00;99.90
54788;DHT22;59598;48.112;16.280;2022-12-22T13:37:21;4.40;99.90
54788;DHT22;59598;48.112;16.280;2022-12-22T13:43:09;4.30;99.90
54788;DHT22;59598;48.112;16.280;2022-12-22T13:45:43;4.40;99.90
54788;DHT22;59598;48.112;16.280;2022-12-22T13:48:40;4.30;99.90
54788;DHT22;59598;48.112;16.280;2022-12-22T13:51:25;4.20;99.90
54788;DHT22;59598;48.112;16.280;2022-12-22T13:56:49;3.60;99.90
54788;DHT22;59598;48.112;16.280;2022-12-22T13:59:44;3.20;99.90
54788;DHT22;59598;48.112;16.280;2022-12-22T14:02:18;3.00;99.90
54788;DHT22;59598;48.112;16.280;2022-12-22T14:05:07;2.90;99.90
54788;DHT22;59598;48.112;16.280;2022-12-22T14:10:37;2.90;99.90
54788;DHT22;59598;48.112;16.280;2022-12-22T14:13:17;2.80;99.90
54788;DHT22;59598;48.112;16.280;2022-12-22T14:16:01;2.70;99.90
54788;DHT22;59598;48.112;16.280;2022-12-22T14:18:33;2.60;99.90
54788;DHT22;59598;48.112;16.280;2022-12-22T14:21:05;2.60;99.90
54788;DHT22;59598;48.112;16.280;2022-12-22T14:23:39;2.50;99.90
54788;DHT22;59598;48.112;16.280;2022-12-22T14:26:17;2.40;99.90
54788;DHT22;59598;48.112;16.280;2022-12-22T14:28:52;2.50;99.90
54788;DHT22;59598;48.112;16.280;2022-12-22T14:31:25;2.40;99.90
54788;DHT22;59598;48.112;16.280;2022-12-22T14:33:58;2.50;99.90
54788;DHT22;59598;48.112;16.280;2022-12-22T14:36:36;2.60;99.90
54788;DHT22;59598;48.112;16.280;2022-12-22T14:39:09;2.70;99.90
54788;DHT22;59598;48.112;16.280;2022-12-22T14:41:48;2.70;99.90
54788;DHT22;59598;48.112;16.280;2022-12-22T14:44:24;2.80;99.90
54788;DHT22;59598;48.112;16.280;2022-12-22T14:52:42;3.00;99.90
54788;DHT22;59598;48.112;16.280;2022-12-22T14:55:47;2.90;99.90
54788;DHT22;59598;48.112;16.280;2022-12-22T14:58:27;2.80;99.90
54788;DHT22;59598;48.112;16.280;2022-12-22T15:01:15;2.70;99.90
54788;DHT22;59598;48.112;16.280;2022-12-22T15:04:27;2.70;99.90
54788;DHT22;59598;48.112;16.280;2022-12-22T15:07:18;2.50;99.90
54788;DHT22;59598;48.112;16.280;2022-12-22T15:09:49;2.40;99.90
54788;DHT22;59598;48.112;16.280;2022-12-22T15:12:21;2.30;99.90
54788;DHT22;59598;48.112;16.280;2022-12-22T15:14:52;2.20;99.90
54788;DHT22;59598;48.112;16.280;2022-12-22T15:17:23;2.20;99.90
54788;DHT22;59598;48.112;16.280;2022-12-22T15:19:58;2.20;99.90
54788;DHT22;59598;48.112;16.280;2022-12-22T15:22:30;2.30;99.90
54788;DHT22;59598;48.112;16.280;2022-12-22T15:25:01;2.20;99.90
54788;DHT22;59598;48.112;16.280;2022-12-22T15:27:32;2.30;99.90
54788;DHT22;59598;48.112;16.280;2022-12-22T15:30:03;2.40;99.90
54788;DHT22;59598;48.112;16.280;2022-12-22T15:32:38;2.40;99.90
54788;DHT22;59598;48.112;16.280;2022-12-22T15:35:13;2.50;99.90
54788;DHT22;59598;48.112;16.280;2022-12-22T15:37:45;2.50;99.90
54788;DHT22;59598;48.112;16.280;2022-12-22T15:40:20;2.40;99.90
54788;DHT22;59598;48.112;16.280;2022-12-22T15:42:52;2.40;99.90
54788;DHT22;59598;48.112;16.280;2022-12-22T15:45:23;2.40;99.90
54788;DHT22;59598;48.112;16.280;2022-12-22T15:47:56;2.30;99.90
54788;DHT22;59598;48.112;16.280;2022-12-22T15:50:34;2.30;99.90
54788;DHT22;59598;48.112;16.280;2022-12-22T15:53:06;2.20;99.90
54788;DHT22;59598;48.112;16.280;2022-12-22T15:55:44;2.40;99.90
54788;DHT22;59598;48.112;16.280;2022-12-22T15:58:17;2.40;99.90
54788;DHT22;59598;48.112;16.280;2022-12-22T16:00:51;2.40;99.90
54788;DHT22;59598;48.112;16.280;2022-12-22T16:03:24;2.30;99.90
54788;DHT22;59598;48.112;16.280;2022-12-22T16:05:58;2.30;99.90
54788;DHT22;59598;48.112;16.280;2022-12-22T16:08:39;2.30;99.90
54788;DHT22;59598;48.112;16.280;2022-12-22T16:11:11;2.30;99.90
54788;DHT22;59598;48.112;16.280;2022-12-22T16:13:43;2.30;99.90
54788;DHT22;59598;48.112;16.280;2022-12-22T16:16:21;2.30;99.90
54788;DHT22;59598;48.112;16.280;2022-12-22T16:18:52;2.20;99.90
54788;DHT22;59598;48.112;16.280;2022-12-22T16:21:29;2.10;99.90
54788;DHT22;59598;48.112;16.280;2022-12-22T16:24:01;2.10;99.90
54788;DHT22;59598;48.112;16.280;2022-12-22T16:26:36;2.10;99.90
54788;DHT22;59598;48.112;16.280;2022-12-22T16:29:14;2.00;99.90
54788;DHT22;59598;48.112;16.280;2022-12-22T16:31:45;2.00;99.90
54788;DHT22;59598;48.112;16.280;2022-12-22T16:34:16;2.00;99.90
54788;DHT22;59598;48.112;16.280;2022-12-22T16:36:48;1.90;99.90
54788;DHT22;59598;48.112;16.280;2022-12-22T16:39:19;1.90;99.90
54788;DHT22;59598;48.112;16.280;2022-12-22T16:41:55;1.90;99.90
54788;DHT22;59598;48.112;16.280;2022-12-22T16:44:26;1.90;99.90
54788;DHT22;59598;48.112;16.280;2022-12-22T16:47:01;1.90;99.90
54788;DHT22;59598;48.112;16.280;2022-12-22T16:49:33;1.90;99.90
54788;DHT22;59598;48.112;16.280;2022-12-22T16:52:04;1.90;99.90
54788;DHT22;59598;48.112;16.280;2022-12-22T16:54:35;1.80;99.90
54788;DHT22;59598;48.112;16.280;2022-12-22T16:57:07;1.80;99.90
54788;DHT22;59598;48.112;16.280;2022-12-22T16:59:41;1.90;99.90
54788;DHT22;59598;48.112;16.280;2022-12-22T17:02:26;1.90;99.90
54788;DHT22;59598;48.112;16.280;2022-12-22T17:04:58;1.90;99.90
54788;DHT22;59598;48.112;16.280;2022-12-22T17:07:31;1.90;99.90
54788;DHT22;59598;48.112;16.280;2022-12-22T17:10:03;1.80;99.90
54788;DHT22;59598;48.112;16.280;2022-12-22T17:12:37;1.70;99.90
54788;DHT22;59598;48.112;16.280;2022-12-22T17:15:19;1.70;99.90
54788;DHT22;59598;48.112;16.280;2022-12-22T17:17:53;1.70;99.90
54788;DHT22;59598;48.112;16.280;2022-12-22T17:20:29;1.70;99.90
54788;DHT22;59598;48.112;16.280;2022-12-22T17:23:03;1.70;99.90
54788;DHT22;59598;48.112;16.280;2022-12-22T17:25:34;1.70;99.90
54788;DHT22;59598;48.112;16.280;2022-12-22T17:28:11;1.60;99.90
54788;DHT22;59598;48.112;16.280;2022-12-22T17:30:50;1.60;99.90
54788;DHT22;59598;48.112;16.280;2022-12-22T17:33:28;1.50;99.90
54788;DHT22;59598;48.112;16.280;2022-12-22T17:36:00;1.60;99.90
54788;DHT22;59598;48.112;16.280;2022-12-22T17:38:33;1.60;99.90
54788;DHT22;59598;48.112;16.280;2022-12-22T17:41:04;1.50;99.90
54788;DHT22;59598;48.112;16.280;2022-12-22T17:43:38;1.50;99.90
54788;DHT22;59598;48.112;16.280;2022-12-22T17:46:16;1.60;99.90
54788;DHT22;59598;48.112;16.280;2022-12-22T17:48:51;1.60;99.90
54788;DHT22;59598;48.112;16.280;2022-12-22T17:51:27;1.60;99.90
54788;DHT22;59598;48.112;16.280;2022-12-22T17:53:58;1.60;99.90
54788;DHT22;59598;48.112;16.280;2022-12-22T17:56:30;1.60;99.90
54788;DHT22;59598;48.112;16.280;2022-12-22T17:59:02;1.60;99.90
54788;DHT22;59598;48.112;16.280;2022-12-22T18:01:33;1.60;99.90
54788;DHT22;59598;48.112;16.280;2022-12-22T18:04:09;1.60;99.90
54788;DHT22;59598;48.112;16.280;2022-12-22T18:06:43;1.60;99.90
54788;DHT22;59598;48.112;16.280;2022-12-22T18:09:18;1.70;99.90
54788;DHT22;59598;48.112;16.280;2022-12-22T18:11:53;1.80;99.90
54788;DHT22;59598;48.112;16.280;2022-12-22T18:14:26;1.90;99.90
54788;DHT22;59598;48.112;16.280;2022-12-22T18:16:57;2.00;99.90
54788;DHT22;59598;48.112;16.280;2022-12-22T18:19:31;2.00;99.90
54788;DHT22;59598;48.112;16.280;2022-12-22T18:22:03;2.20;99.90
54788;DHT22;59598;48.112;16.280;2022-12-22T18:24:35;2.50;99.90
54788;DHT22;59598;48.112;16.280;2022-12-22T18:27:15;2.90;99.90
54788;DHT22;59598;48.112;16.280;2022-12-22T18:30:19;3.20;99.90
54788;DHT22;59598;48.112;16.280;2022-12-22T18:32:56;3.20;99.90